Johann Schulte — MXQO5 — position and weather

sailwx.info

Track history (hours):
 
Tides and Currents Weather Stations Pressure Air Temp Water Temp Dewpoint Dewpoint Depression Visibility Wind Speed Wind Dir Waves Ship Positions

Johann Schulte

Last reported at 2018-Apr-11 06:39 UTC. Time now 2018-Apr-19 23:26 UTC.
Position N 31°12' E 123°08'.
Warning: this ship's position is 8 days out of date.

Length 155 m; draft 7.3 m.

Type: Ship (hazmat cat D). MMSI: 234889000.

Date/timePositionNaut miles runAvg speedWind from/ knotsBaromVisibWave heightAir tempDewpointWater temp
2018-Apr-11 06:39N 31°12' E 123°08'212.2
2018-Apr-11 06:29N 31°11' E 123°06'912.9
2018-Apr-11 05:49N 31°06' E 122°58'2314.3
2018-Apr-11 04:12N 31°06' E 122°31'412.6
2018-Apr-11 03:52N 31°06' E 122°26'3312.4
2018-Apr-11 01:13N 31°17' E 121°50'2310.0
2018-Apr-10 22:57N 31°28' E 121°27'511.9
2018-Apr-10 22:30N 31°32' E 121°22'3 6.0
2018-Apr-10 22:00N 31°34' E 121°21'0 0.1
2018-Apr-10 21:30N 31°34' E 121°21'0 0.0
2018-Apr-10 20:57N 31°34' E 121°21'0 0.0
2018-Apr-10 20:27N 31°34' E 121°21'0 0.0
2018-Apr-10 19:57N 31°34' E 121°21'0 0.0
2018-Apr-10 19:30N 31°34' E 121°21'0 0.0
2018-Apr-10 19:00N 31°34' E 121°21'0 0.0
2018-Apr-10 18:30N 31°34' E 121°21'0 0.0
2018-Apr-10 18:00N 31°34' E 121°21'0 0.0
2018-Apr-10 17:30N 31°34' E 121°21'0 0.0
2018-Apr-10 17:00N 31°34' E 121°21'0 0.0
2018-Apr-10 16:27N 31°34' E 121°21'0 0.2
2018-Apr-10 15:57N 31°34' E 121°20'0 0.0
2018-Apr-10 15:30N 31°34' E 121°20'0 0.1
2018-Apr-10 15:00N 31°34' E 121°20'0 0.0
2018-Apr-10 14:30N 31°34' E 121°20'0 0.0
2018-Apr-10 14:00N 31°34' E 121°20'0 0.0
2018-Apr-10 13:30N 31°34' E 121°20'0 0.0
2018-Apr-10 12:57N 31°34' E 121°20'0 0.0
2018-Apr-10 12:30N 31°34' E 121°20'0 0.0
2018-Apr-10 11:57N 31°34' E 121°20'0 0.1
2018-Apr-10 11:30N 31°34' E 121°20'0 0.1
2018-Apr-10 10:57N 31°34' E 121°21'0 0.1
2018-Apr-10 10:30N 31°34' E 121°21'0 0.0
2018-Apr-10 10:00N 31°34' E 121°21'1 2.0
2018-Apr-10 09:30N 31°34' E 121°19'611.6
2018-Apr-10 09:00N 31°38' E 121°14'4111.2
2018-Apr-10 05:18N 32°01' E 120°33'412.8
2018-Apr-10 04:59N 32°02' E 120°29'2 0.1
2018-Apr-09 07:36N 32°02' E 120°26'110.8
2018-Apr-09 07:30N 32°02' E 120°27'39 1.7
2018-Apr-08 08:26N 31°43' E 121°08'410.4
2018-Apr-08 08:00N 31°40' E 121°12'510.2
2018-Apr-08 07:30N 31°37' E 121°16'611.0
2018-Apr-08 07:00N 31°33' E 121°20'510.9
2018-Apr-08 06:30N 31°30' E 121°26'  
2018-Apr-01 11:24N 25°22' E 120°47'613.9
2018-Apr-01 10:57N 25°17' E 120°43'814.4
2018-Apr-01 10:21N 25°10' E 120°37'  
Track history (hours):
 
Tides and Currents Weather Stations Pressure Air Temp Water Temp Dewpoint Dewpoint Depression Visibility Wind Speed Wind Dir Waves Ship Positions

Johann Schulte

Last reported at 2018-Apr-11 06:39 UTC. Time now 2018-Apr-19 23:26 UTC.
Position N 31°12' E 123°08'.
Warning: this ship's position is 8 days out of date.

Length 155 m; draft 7.3 m.

Type: Ship (hazmat cat D). MMSI: 234889000.

Date/timePositionNaut miles runAvg speedWind from/ knotsBaromVisibWave heightAir tempDewpointWater temp
2018-Apr-11 06:39N 31°12' E 123°08'212.2
2018-Apr-11 06:29N 31°11' E 123°06'912.9
2018-Apr-11 05:49N 31°06' E 122°58'2314.3
2018-Apr-11 04:12N 31°06' E 122°31'412.6
2018-Apr-11 03:52N 31°06' E 122°26'3312.4
2018-Apr-11 01:13N 31°17' E 121°50'2310.0
2018-Apr-10 22:57N 31°28' E 121°27'511.9
2018-Apr-10 22:30N 31°32' E 121°22'3 6.0
2018-Apr-10 22:00N 31°34' E 121°21'0 0.1
2018-Apr-10 21:30N 31°34' E 121°21'0 0.0
2018-Apr-10 20:57N 31°34' E 121°21'0 0.0
2018-Apr-10 20:27N 31°34' E 121°21'0 0.0
2018-Apr-10 19:57N 31°34' E 121°21'0 0.0
2018-Apr-10 19:30N 31°34' E 121°21'0 0.0
2018-Apr-10 19:00N 31°34' E 121°21'0 0.0
2018-Apr-10 18:30N 31°34' E 121°21'0 0.0
2018-Apr-10 18:00N 31°34' E 121°21'0 0.0
2018-Apr-10 17:30N 31°34' E 121°21'0 0.0
2018-Apr-10 17:00N 31°34' E 121°21'0 0.0
2018-Apr-10 16:27N 31°34' E 121°21'0 0.2
2018-Apr-10 15:57N 31°34' E 121°20'0 0.0
2018-Apr-10 15:30N 31°34' E 121°20'0 0.1
2018-Apr-10 15:00N 31°34' E 121°20'0 0.0
2018-Apr-10 14:30N 31°34' E 121°20'0 0.0
2018-Apr-10 14:00N 31°34' E 121°20'0 0.0
2018-Apr-10 13:30N 31°34' E 121°20'0 0.0
2018-Apr-10 12:57N 31°34' E 121°20'0 0.0
2018-Apr-10 12:30N 31°34' E 121°20'0 0.0
2018-Apr-10 11:57N 31°34' E 121°20'0 0.1
2018-Apr-10 11:30N 31°34' E 121°20'0 0.1
2018-Apr-10 10:57N 31°34' E 121°21'0 0.1
2018-Apr-10 10:30N 31°34' E 121°21'0 0.0
2018-Apr-10 10:00N 31°34' E 121°21'1 2.0
2018-Apr-10 09:30N 31°34' E 121°19'611.6
2018-Apr-10 09:00N 31°38' E 121°14'4111.2
2018-Apr-10 05:18N 32°01' E 120°33'412.8
2018-Apr-10 04:59N 32°02' E 120°29'2 0.1
2018-Apr-09 07:36N 32°02' E 120°26'110.8
2018-Apr-09 07:30N 32°02' E 120°27'39 1.7
2018-Apr-08 08:26N 31°43' E 121°08'410.4
2018-Apr-08 08:00N 31°40' E 121°12'510.2
2018-Apr-08 07:30N 31°37' E 121°16'611.0
2018-Apr-08 07:00N 31°33' E 121°20'510.9
2018-Apr-08 06:30N 31°30' E 121°26'  
2018-Apr-01 11:24N 25°22' E 120°47'613.9
2018-Apr-01 10:57N 25°17' E 120°43'814.4
2018-Apr-01 10:21N 25°10' E 120°37'  

Dump ship's entire track history